createdAt,value
2022-10-09T00:01:25.246Z,99.90
2022-10-09T00:03:54.958Z,99.90
2022-10-09T00:06:28.827Z,99.90
2022-10-09T00:11:27.303Z,99.90
2022-10-09T00:21:28.235Z,99.90
2022-10-09T00:23:57.716Z,99.90
2022-10-09T00:26:26.084Z,99.90
2022-10-09T00:28:54.130Z,99.90
2022-10-09T00:33:50.411Z,99.90
2022-10-09T00:38:48.196Z,99.90
2022-10-09T00:43:50.537Z,99.90
2022-10-09T00:46:33.857Z,99.90
2022-10-09T00:49:21.471Z,99.90
2022-10-09T00:51:51.859Z,99.90
2022-10-09T00:54:23.070Z,99.90
2022-10-09T01:01:47.268Z,99.90
2022-10-09T01:04:15.279Z,99.90
2022-10-09T01:07:07.967Z,99.90
2022-10-09T01:10:09.249Z,99.90
2022-10-09T01:12:42.164Z,99.90
2022-10-09T01:15:20.957Z,99.90
2022-10-09T01:17:52.354Z,99.90
2022-10-09T01:20:39.167Z,99.90
2022-10-09T01:23:41.470Z,99.90
2022-10-09T01:26:25.993Z,99.90
2022-10-09T01:28:59.292Z,99.90
2022-10-09T01:31:31.279Z,99.90
2022-10-09T01:34:00.261Z,99.90
2022-10-09T01:36:31.178Z,99.90
2022-10-09T01:39:01.653Z,99.90
2022-10-09T01:41:29.648Z,99.90
2022-10-09T01:43:56.996Z,99.90
2022-10-09T01:46:32.988Z,99.90
2022-10-09T01:49:23.041Z,99.90
2022-10-09T01:51:56.515Z,99.90
2022-10-09T01:57:02.841Z,99.90
2022-10-09T01:59:32.095Z,99.90
2022-10-09T02:04:34.534Z,99.90
2022-10-09T02:07:02.900Z,99.90
2022-10-09T02:09:31.628Z,99.90
2022-10-09T02:12:04.956Z,99.90
2022-10-09T02:14:32.749Z,99.90
2022-10-09T02:17:30.045Z,99.90
2022-10-09T02:20:14.568Z,99.90
2022-10-09T02:22:42.471Z,99.90
2022-10-09T02:27:37.855Z,99.90
2022-10-09T02:30:09.336Z,99.90
2022-10-09T02:32:36.891Z,99.90
2022-10-09T02:35:04.593Z,99.90
2022-10-09T02:37:32.417Z,99.90
2022-10-09T02:40:00.136Z,99.90
2022-10-09T02:47:24.094Z,99.90
2022-10-09T02:49:51.703Z,99.90
2022-10-09T02:52:19.389Z,99.90
2022-10-09T02:54:48.331Z,99.90
2022-10-09T03:02:11.798Z,99.90
2022-10-09T03:04:39.343Z,99.90
2022-10-09T03:07:07.126Z,99.90
2022-10-09T03:09:34.912Z,99.90
2022-10-09T03:19:25.912Z,99.90
2022-10-09T03:21:53.574Z,99.90
2022-10-09T03:29:17.401Z,99.90
2022-10-09T03:34:21.364Z,99.90
2022-10-09T03:36:49.124Z,99.90
2022-10-09T03:39:16.541Z,99.90
2022-10-09T03:44:12.044Z,99.90
2022-10-09T03:46:39.546Z,99.90
2022-10-09T03:49:08.152Z,99.90
2022-10-09T03:56:31.460Z,99.90
2022-10-09T04:01:26.721Z,99.90
2022-10-09T04:03:54.587Z,99.90
2022-10-09T04:08:49.683Z,99.90
2022-10-09T04:11:17.219Z,99.90
2022-10-09T04:13:44.761Z,99.90
2022-10-09T04:18:43.652Z,99.90
2022-10-09T04:23:40.791Z,99.90
2022-10-09T04:26:08.284Z,99.90
2022-10-09T04:31:03.685Z,99.90
2022-10-09T04:35:59.620Z,99.90
2022-10-09T04:38:29.092Z,99.90
2022-10-09T04:41:06.079Z,99.90
2022-10-09T04:43:35.016Z,99.90
2022-10-09T04:46:12.343Z,99.90
2022-10-09T04:48:41.598Z,99.90
2022-10-09T04:51:10.509Z,99.90
2022-10-09T04:53:38.453Z,99.90
2022-10-09T04:56:10.823Z,99.90
2022-10-09T04:58:41.962Z,99.90
2022-10-09T05:01:22.174Z,99.90
2022-10-09T05:03:49.823Z,99.90
2022-10-09T05:06:18.782Z,99.90
2022-10-09T05:14:40.023Z,99.90
2022-10-09T05:17:15.282Z,99.90
2022-10-09T05:19:43.698Z,99.90
2022-10-09T05:22:11.189Z,99.90
2022-10-09T05:24:38.784Z,99.90
2022-10-09T05:29:34.024Z,99.90
2022-10-09T05:32:01.707Z,99.90
2022-10-09T05:34:29.298Z,99.90
2022-10-09T05:39:24.825Z,99.90
2022-10-09T05:44:20.238Z,99.90
2022-10-09T05:46:47.945Z,99.90
2022-10-09T05:54:15.228Z,99.90
2022-10-09T05:56:43.253Z,99.90
2022-10-09T05:59:18.968Z,99.90
2022-10-09T06:01:48.855Z,99.90
2022-10-09T06:04:24.633Z,99.90
2022-10-09T06:06:52.331Z,99.90
2022-10-09T06:16:50.956Z,99.90
2022-10-09T06:19:20.053Z,99.90
2022-10-09T06:21:47.852Z,99.90
2022-10-09T06:24:26.987Z,99.90
2022-10-09T06:29:24.142Z,99.90
2022-10-09T06:31:51.477Z,99.90
2022-10-09T06:41:42.184Z,99.90
2022-10-09T06:44:16.685Z,99.90
2022-10-09T06:46:45.216Z,99.90
2022-10-09T06:49:13.258Z,99.90
2022-10-09T06:51:40.911Z,99.90
2022-10-09T06:54:13.369Z,99.90
2022-10-09T06:56:41.182Z,99.90
2022-10-09T06:59:09.880Z,99.90
2022-10-09T07:01:37.793Z,99.90
2022-10-09T07:04:07.709Z,99.90
2022-10-09T07:09:08.297Z,99.90
2022-10-09T07:11:37.917Z,99.90
2022-10-09T07:14:07.359Z,99.90
2022-10-09T07:16:40.877Z,96.00
2022-10-09T07:21:40.788Z,59.50
2022-10-09T07:24:08.235Z,51.70
2022-10-09T07:26:38.124Z,63.20
2022-10-09T07:31:34.757Z,65.40
2022-10-09T07:34:02.936Z,66.40
2022-10-09T07:36:31.033Z,60.40
2022-10-09T07:38:59.583Z,38.80
2022-10-09T07:41:29.997Z,39.80
2022-10-09T07:46:30.785Z,44.70
2022-10-09T07:51:29.337Z,45.10
2022-10-09T07:56:29.577Z,51.50
2022-10-09T08:01:32.165Z,55.60
2022-10-09T08:04:00.682Z,49.90
2022-10-09T08:06:29.126Z,49.10
2022-10-09T08:11:27.564Z,51.10
2022-10-09T08:13:56.264Z,56.30
2022-10-09T08:16:25.584Z,56.30
2022-10-09T08:19:00.871Z,58.20
2022-10-09T08:23:58.384Z,57.60
2022-10-09T08:29:02.467Z,55.20
2022-10-09T08:31:32.066Z,56.70
2022-10-09T08:34:01.944Z,57.30
2022-10-09T08:38:57.474Z,63.20
2022-10-09T08:41:42.700Z,74.20
2022-10-09T08:44:31.843Z,66.10
2022-10-09T08:47:20.018Z,66.10
2022-10-09T08:50:25.890Z,66.70
2022-10-09T08:53:19.605Z,66.80
2022-10-09T08:56:02.135Z,75.20
2022-10-09T08:58:39.260Z,69.10
2022-10-09T09:03:58.625Z,66.70
2022-10-09T09:06:32.003Z,69.10
2022-10-09T09:09:27.697Z,75.20
2022-10-09T09:12:04.327Z,75.40
2022-10-09T09:22:13.821Z,37.40
2022-10-09T09:24:58.092Z,27.00
2022-10-09T09:35:16.258Z,27.60
2022-10-09T09:40:36.632Z,23.90
2022-10-09T09:43:12.351Z,36.50
2022-10-09T09:53:30.676Z,43.00
2022-10-09T09:55:58.540Z,45.30
2022-10-09T09:58:34.050Z,45.70
2022-10-09T10:01:03.786Z,55.40
2022-10-09T10:03:32.852Z,49.70
2022-10-09T10:06:00.436Z,55.40
2022-10-09T10:08:33.492Z,51.10
2022-10-09T10:11:07.236Z,38.90
2022-10-09T10:13:39.465Z,30.60
2022-10-09T10:16:08.932Z,26.80
2022-10-09T10:18:42.330Z,23.50
2022-10-09T10:21:15.712Z,20.90
2022-10-09T10:24:03.655Z,21.20
2022-10-09T10:26:47.128Z,22.00
2022-10-09T10:29:29.365Z,21.10
2022-10-09T10:32:06.609Z,17.90
2022-10-09T10:39:46.278Z,17.90
2022-10-09T10:45:11.495Z,19.90
2022-10-09T10:47:45.201Z,20.80
2022-10-09T10:50:17.359Z,19.40
2022-10-09T10:52:58.186Z,20.20
2022-10-09T10:55:34.187Z,22.30
2022-10-09T10:58:07.964Z,25.40
2022-10-09T11:00:39.434Z,26.40
2022-10-09T11:03:44.661Z,30.80
2022-10-09T11:06:44.200Z,31.00
2022-10-09T11:09:31.225Z,39.60
2022-10-09T11:12:43.371Z,39.40
2022-10-09T11:15:30.983Z,45.10
2022-10-09T11:18:10.273Z,40.90
2022-10-09T11:20:47.560Z,44.40
2022-10-09T11:23:20.960Z,34.20
2022-10-09T11:26:23.289Z,28.30
2022-10-09T11:28:59.540Z,27.20
2022-10-09T11:31:43.512Z,24.20
2022-10-09T11:47:09.418Z,14.90
2022-10-09T12:10:32.635Z,20.00
2022-10-09T12:15:52.561Z,21.90
2022-10-09T12:18:41.473Z,23.20
2022-10-09T12:21:29.226Z,25.80
2022-10-09T12:26:26.219Z,31.50
2022-10-09T12:39:24.591Z,38.30
2022-10-09T12:41:55.975Z,40.80
2022-10-09T12:44:38.605Z,42.40
2022-10-09T12:52:16.460Z,45.20
2022-10-09T12:57:16.102Z,42.90
2022-10-09T13:02:17.273Z,44.20
2022-10-09T13:05:01.155Z,45.00
2022-10-09T13:10:06.098Z,45.80
2022-10-09T14:47:10.217Z,32.30
2022-10-09T14:49:37.976Z,30.40
2022-10-09T14:52:05.781Z,29.60
2022-10-09T14:54:33.614Z,30.50
2022-10-09T14:57:01.520Z,30.30
2022-10-09T14:59:30.681Z,31.30
2022-10-09T15:02:01.407Z,31.50
2022-10-09T15:06:57.125Z,33.90
2022-10-09T15:11:53.114Z,35.70
2022-10-09T15:16:50.026Z,36.90
2022-10-09T15:21:45.540Z,47.80
2022-10-09T15:24:13.525Z,39.30
2022-10-09T15:26:42.059Z,40.60
2022-10-09T15:29:09.923Z,47.90
2022-10-09T15:31:39.700Z,43.60
2022-10-09T15:36:38.628Z,49.00
2022-10-09T15:39:08.932Z,49.10
2022-10-09T15:51:33.262Z,62.30
2022-10-09T15:54:01.457Z,65.00
2022-10-09T15:56:29.996Z,67.50
2022-10-09T15:58:58.382Z,69.70
2022-10-09T16:01:26.366Z,70.70
2022-10-09T16:03:54.056Z,72.90
2022-10-09T16:06:23.730Z,76.30
2022-10-09T16:08:52.031Z,76.20
2022-10-09T16:11:21.919Z,78.80
2022-10-09T16:13:55.315Z,82.30
2022-10-09T16:16:25.295Z,83.80
2022-10-09T16:18:53.293Z,86.50
2022-10-09T16:23:58.111Z,93.90
2022-10-09T16:26:27.940Z,94.80
2022-10-09T16:31:30.289Z,96.30
2022-10-09T16:33:58.505Z,98.60
2022-10-09T16:36:26.567Z,97.50
2022-10-09T16:46:26.035Z,99.90
2022-10-09T16:51:31.043Z,99.90
2022-10-09T16:56:34.607Z,99.90
2022-10-09T16:59:04.689Z,99.90
2022-10-09T17:01:32.839Z,99.90
2022-10-09T17:08:58.464Z,99.90
2022-10-09T17:13:56.921Z,99.90
2022-10-09T17:16:26.329Z,99.90
2022-10-09T17:18:55.472Z,99.90
2022-10-09T17:21:23.432Z,99.90
2022-10-09T17:23:54.709Z,99.90
2022-10-09T17:26:24.887Z,99.90
2022-10-09T17:28:52.744Z,99.90
2022-10-09T17:31:23.384Z,99.90
2022-10-09T17:33:55.371Z,99.90
2022-10-09T17:36:24.501Z,99.90
2022-10-09T17:41:23.884Z,99.90
2022-10-09T17:43:56.010Z,99.90
2022-10-09T17:46:24.813Z,99.90
2022-10-09T17:48:56.843Z,99.90
2022-10-09T17:51:30.133Z,99.90
2022-10-09T17:54:01.170Z,99.90
2022-10-09T17:56:32.358Z,99.90
2022-10-09T17:59:01.265Z,99.90
2022-10-09T18:01:29.174Z,99.90
2022-10-09T18:03:57.653Z,99.90
2022-10-09T18:06:25.360Z,99.90
2022-10-09T18:11:22.781Z,99.90
2022-10-09T18:13:54.480Z,99.90
2022-10-09T18:16:31.454Z,99.90
2022-10-09T18:19:12.309Z,99.90
2022-10-09T18:21:42.086Z,99.90
2022-10-09T18:31:34.617Z,99.90
2022-10-09T18:36:34.906Z,99.90
2022-10-09T18:41:38.064Z,99.90
2022-10-09T18:44:07.494Z,99.90
2022-10-09T18:46:38.582Z,99.90
2022-10-09T18:51:44.524Z,99.90
2022-10-09T18:54:18.120Z,99.90
2022-10-09T18:56:46.636Z,99.90
2022-10-09T18:59:16.912Z,99.90
2022-10-09T19:01:47.109Z,99.90
2022-10-09T19:11:39.134Z,99.90
2022-10-09T19:21:32.370Z,99.90
2022-10-09T19:24:06.346Z,99.90
2022-10-09T19:29:03.996Z,99.90
2022-10-09T19:34:05.246Z,99.90
2022-10-09T19:51:23.702Z,99.90
2022-10-09T20:03:58.073Z,99.90
2022-10-09T20:11:25.726Z,99.90
2022-10-09T20:13:56.652Z,99.90
2022-10-09T20:16:25.452Z,99.90
2022-10-09T20:18:55.133Z,99.90
2022-10-09T20:23:50.842Z,99.90
2022-10-09T20:26:20.810Z,99.90
2022-10-09T20:28:49.910Z,99.90
2022-10-09T20:33:48.197Z,99.90
2022-10-09T20:36:26.073Z,99.90
2022-10-09T20:38:56.147Z,99.90
2022-10-09T20:41:24.154Z,99.90
2022-10-09T20:43:53.350Z,99.90
2022-10-09T20:46:24.116Z,99.90
2022-10-09T20:48:52.579Z,99.90
2022-10-09T20:51:20.689Z,99.90
2022-10-09T20:53:56.172Z,99.90
2022-10-09T20:56:25.376Z,99.90
2022-10-09T20:58:53.159Z,99.90
2022-10-09T21:01:20.926Z,99.90
2022-10-09T21:03:49.242Z,99.90
2022-10-09T21:06:19.601Z,99.90
2022-10-09T21:08:47.394Z,99.90
2022-10-09T21:11:17.831Z,99.90
2022-10-09T21:16:19.256Z,99.90
2022-10-09T21:18:47.332Z,99.90
2022-10-09T21:21:17.660Z,99.90
2022-10-09T21:23:45.992Z,99.90
2022-10-09T21:26:18.506Z,99.90
2022-10-09T21:28:46.943Z,99.90
2022-10-09T21:31:22.894Z,99.90
2022-10-09T21:33:51.332Z,99.90
2022-10-09T21:36:23.678Z,99.90
2022-10-09T21:38:51.499Z,99.90
2022-10-09T21:41:19.397Z,99.90
2022-10-09T21:46:15.044Z,99.90
2022-10-09T21:48:43.012Z,99.90
2022-10-09T21:51:10.827Z,99.90
2022-10-09T21:53:38.382Z,99.90
2022-10-09T21:56:09.984Z,99.90
2022-10-09T22:06:07.129Z,99.90
2022-10-09T22:08:35.428Z,99.90
2022-10-09T22:11:10.214Z,99.90
2022-10-09T22:13:39.308Z,99.90
2022-10-09T22:18:43.971Z,99.90
2022-10-09T22:21:13.840Z,99.90
2022-10-09T22:23:41.942Z,99.90
2022-10-09T22:26:13.368Z,99.90
2022-10-09T22:28:41.481Z,99.90
2022-10-09T22:31:13.885Z,99.90
2022-10-09T22:33:41.796Z,99.90
2022-10-09T22:36:17.691Z,99.90
2022-10-09T22:41:18.619Z,99.90
2022-10-09T22:43:49.507Z,99.90
2022-10-09T22:46:28.108Z,99.90
2022-10-09T22:48:56.244Z,99.90
2022-10-09T22:51:28.782Z,99.90
2022-10-09T22:53:57.551Z,99.90
2022-10-09T22:58:58.557Z,99.90
2022-10-09T23:01:39.384Z,99.90
2022-10-09T23:04:10.273Z,99.90
2022-10-09T23:06:38.223Z,99.90
2022-10-09T23:09:07.583Z,99.90
2022-10-09T23:11:35.511Z,99.90
2022-10-09T23:14:04.134Z,99.90
2022-10-09T23:16:31.961Z,99.90
2022-10-09T23:19:06.139Z,99.90
2022-10-09T23:24:02.072Z,99.90
2022-10-09T23:26:31.260Z,99.90
2022-10-09T23:29:07.293Z,99.90
2022-10-09T23:31:36.016Z,99.90
2022-10-09T23:34:04.511Z,99.90
2022-10-09T23:36:32.372Z,99.90
2022-10-09T23:39:01.594Z,99.90
2022-10-09T23:41:29.555Z,99.90
2022-10-09T23:43:57.290Z,99.90
2022-10-09T23:48:54.291Z,99.90
2022-10-09T23:51:24.079Z,99.90
2022-10-09T23:53:51.878Z,99.90
2022-10-09T23:56:23.855Z,99.90
2022-10-09T23:58:52.366Z,99.90
